sensor_id;sensor_type;location;lat;lon;timestamp;P1;durP1;ratioP1;P2;durP2;ratioP2
10945;SDS011;5525;42.648;23.368;2022-12-24T00:00:29;25.17;;;14.40;;
10945;SDS011;5525;42.648;23.368;2022-12-24T00:02:57;25.67;;;13.90;;
10945;SDS011;5525;42.648;23.368;2022-12-24T00:05:23;19.52;;;12.65;;
10945;SDS011;5525;42.648;23.368;2022-12-24T00:07:51;21.80;;;12.57;;
10945;SDS011;5525;42.648;23.368;2022-12-24T00:10:18;20.38;;;13.30;;
10945;SDS011;5525;42.648;23.368;2022-12-24T00:12:46;22.35;;;13.25;;
10945;SDS011;5525;42.648;23.368;2022-12-24T00:15:13;23.42;;;14.23;;
10945;SDS011;5525;42.648;23.368;2022-12-24T00:17:40;23.35;;;13.63;;
10945;SDS011;5525;42.648;23.368;2022-12-24T00:20:07;26.77;;;14.75;;
10945;SDS011;5525;42.648;23.368;2022-12-24T00:22:35;23.27;;;14.10;;
10945;SDS011;5525;42.648;23.368;2022-12-24T00:25:01;23.60;;;15.85;;
10945;SDS011;5525;42.648;23.368;2022-12-24T00:27:28;24.75;;;14.75;;
10945;SDS011;5525;42.648;23.368;2022-12-24T00:29:56;24.40;;;14.80;;
10945;SDS011;5525;42.648;23.368;2022-12-24T00:32:23;23.83;;;14.55;;
10945;SDS011;5525;42.648;23.368;2022-12-24T00:34:50;24.30;;;12.52;;
10945;SDS011;5525;42.648;23.368;2022-12-24T00:37:17;22.13;;;13.73;;
10945;SDS011;5525;42.648;23.368;2022-12-24T00:39:44;22.67;;;14.65;;
10945;SDS011;5525;42.648;23.368;2022-12-24T00:42:11;21.05;;;12.27;;
10945;SDS011;5525;42.648;23.368;2022-12-24T00:44:38;24.05;;;14.60;;
10945;SDS011;5525;42.648;23.368;2022-12-24T00:47:06;23.60;;;14.23;;
10945;SDS011;5525;42.648;23.368;2022-12-24T00:49:33;25.35;;;14.32;;
10945;SDS011;5525;42.648;23.368;2022-12-24T00:52:00;26.63;;;15.20;;
10945;SDS011;5525;42.648;23.368;2022-12-24T00:54:27;21.20;;;13.23;;
10945;SDS011;5525;42.648;23.368;2022-12-24T00:56:54;26.58;;;13.85;;
10945;SDS011;5525;42.648;23.368;2022-12-24T00:59:21;24.75;;;14.05;;
10945;SDS011;5525;42.648;23.368;2022-12-24T01:01:47;22.08;;;12.82;;
10945;SDS011;5525;42.648;23.368;2022-12-24T01:04:16;22.63;;;13.93;;
10945;SDS011;5525;42.648;23.368;2022-12-24T01:07:00;16.75;;;9.95;;
10945;SDS011;5525;42.648;23.368;2022-12-24T01:09:26;24.25;;;14.32;;
10945;SDS011;5525;42.648;23.368;2022-12-24T01:11:53;23.08;;;11.75;;
10945;SDS011;5525;42.648;23.368;2022-12-24T01:14:20;20.27;;;12.85;;
10945;SDS011;5525;42.648;23.368;2022-12-24T01:16:47;18.10;;;11.93;;
10945;SDS011;5525;42.648;23.368;2022-12-24T01:19:13;20.08;;;11.80;;
10945;SDS011;5525;42.648;23.368;2022-12-24T01:21:42;19.80;;;12.43;;
10945;SDS011;5525;42.648;23.368;2022-12-24T01:24:09;17.45;;;11.48;;
10945;SDS011;5525;42.648;23.368;2022-12-24T01:26:39;21.38;;;11.95;;
10945;SDS011;5525;42.648;23.368;2022-12-24T01:29:06;22.50;;;12.20;;
10945;SDS011;5525;42.648;23.368;2022-12-24T01:31:33;19.52;;;11.57;;
10945;SDS011;5525;42.648;23.368;2022-12-24T01:34:00;21.20;;;12.55;;
10945;SDS011;5525;42.648;23.368;2022-12-24T01:36:28;20.95;;;12.85;;
10945;SDS011;5525;42.648;23.368;2022-12-24T01:38:55;21.33;;;12.88;;
10945;SDS011;5525;42.648;23.368;2022-12-24T01:41:22;19.23;;;11.95;;
10945;SDS011;5525;42.648;23.368;2022-12-24T01:44:20;21.77;;;12.27;;
10945;SDS011;5525;42.648;23.368;2022-12-24T01:46:50;19.13;;;11.77;;
10945;SDS011;5525;42.648;23.368;2022-12-24T01:49:20;19.58;;;11.32;;
10945;SDS011;5525;42.648;23.368;2022-12-24T01:51:50;20.05;;;12.02;;
10945;SDS011;5525;42.648;23.368;2022-12-24T01:54:20;20.30;;;11.90;;
10945;SDS011;5525;42.648;23.368;2022-12-24T01:56:52;18.33;;;11.00;;
10945;SDS011;5525;42.648;23.368;2022-12-24T01:59:22;20.02;;;12.25;;
10945;SDS011;5525;42.648;23.368;2022-12-24T02:01:49;20.35;;;12.20;;
10945;SDS011;5525;42.648;23.368;2022-12-24T02:04:21;19.77;;;12.07;;
10945;SDS011;5525;42.648;23.368;2022-12-24T02:06:55;21.40;;;12.18;;
10945;SDS011;5525;42.648;23.368;2022-12-24T02:09:23;22.55;;;12.05;;
10945;SDS011;5525;42.648;23.368;2022-12-24T02:11:50;21.00;;;12.82;;
10945;SDS011;5525;42.648;23.368;2022-12-24T02:14:17;19.35;;;11.93;;
10945;SDS011;5525;42.648;23.368;2022-12-24T02:16:46;21.73;;;11.15;;
10945;SDS011;5525;42.648;23.368;2022-12-24T02:19:32;19.15;;;11.43;;
10945;SDS011;5525;42.648;23.368;2022-12-24T02:22:20;18.58;;;10.93;;
10945;SDS011;5525;42.648;23.368;2022-12-24T02:28:06;22.98;;;12.30;;
10945;SDS011;5525;42.648;23.368;2022-12-24T02:30:44;24.98;;;12.63;;
10945;SDS011;5525;42.648;23.368;2022-12-24T02:33:17;20.90;;;12.25;;
10945;SDS011;5525;42.648;23.368;2022-12-24T02:35:54;19.27;;;12.50;;
10945;SDS011;5525;42.648;23.368;2022-12-24T02:38:27;18.35;;;10.70;;
10945;SDS011;5525;42.648;23.368;2022-12-24T02:41:01;19.38;;;11.60;;
10945;SDS011;5525;42.648;23.368;2022-12-24T02:43:33;19.80;;;13.63;;
10945;SDS011;5525;42.648;23.368;2022-12-24T02:46:05;22.02;;;12.50;;
10945;SDS011;5525;42.648;23.368;2022-12-24T02:48:38;20.80;;;13.25;;
10945;SDS011;5525;42.648;23.368;2022-12-24T02:51:11;20.50;;;13.32;;
10945;SDS011;5525;42.648;23.368;2022-12-24T02:53:38;22.70;;;13.55;;
10945;SDS011;5525;42.648;23.368;2022-12-24T02:59:03;24.10;;;15.15;;
10945;SDS011;5525;42.648;23.368;2022-12-24T03:01:48;25.92;;;16.58;;
10945;SDS011;5525;42.648;23.368;2022-12-24T03:04:24;23.25;;;14.73;;
10945;SDS011;5525;42.648;23.368;2022-12-24T03:07:06;23.35;;;15.18;;
10945;SDS011;5525;42.648;23.368;2022-12-24T03:09:44;25.45;;;14.60;;
10945;SDS011;5525;42.648;23.368;2022-12-24T03:12:19;20.98;;;14.18;;
10945;SDS011;5525;42.648;23.368;2022-12-24T03:14:52;22.05;;;13.75;;
10945;SDS011;5525;42.648;23.368;2022-12-24T03:17:20;25.13;;;14.18;;
10945;SDS011;5525;42.648;23.368;2022-12-24T03:19:47;27.58;;;15.90;;
10945;SDS011;5525;42.648;23.368;2022-12-24T03:22:15;23.23;;;15.18;;
10945;SDS011;5525;42.648;23.368;2022-12-24T03:24:43;21.40;;;14.10;;
10945;SDS011;5525;42.648;23.368;2022-12-24T03:27:10;23.20;;;13.02;;
10945;SDS011;5525;42.648;23.368;2022-12-24T03:29:39;24.90;;;12.93;;
10945;SDS011;5525;42.648;23.368;2022-12-24T03:32:06;23.30;;;13.23;;
10945;SDS011;5525;42.648;23.368;2022-12-24T03:34:35;22.10;;;13.40;;
10945;SDS011;5525;42.648;23.368;2022-12-24T03:37:02;24.55;;;14.23;;
10945;SDS011;5525;42.648;23.368;2022-12-24T03:39:29;24.10;;;14.27;;
10945;SDS011;5525;42.648;23.368;2022-12-24T03:41:59;21.20;;;13.85;;
10945;SDS011;5525;42.648;23.368;2022-12-24T03:44:25;22.00;;;12.38;;
10945;SDS011;5525;42.648;23.368;2022-12-24T03:46:52;23.75;;;12.93;;
10945;SDS011;5525;42.648;23.368;2022-12-24T03:49:19;21.80;;;12.68;;
10945;SDS011;5525;42.648;23.368;2022-12-24T03:51:47;21.35;;;12.15;;
10945;SDS011;5525;42.648;23.368;2022-12-24T03:54:14;23.27;;;12.73;;
10945;SDS011;5525;42.648;23.368;2022-12-24T03:56:41;19.15;;;11.93;;
10945;SDS011;5525;42.648;23.368;2022-12-24T03:59:07;19.75;;;11.80;;
10945;SDS011;5525;42.648;23.368;2022-12-24T04:01:34;18.98;;;12.35;;
10945;SDS011;5525;42.648;23.368;2022-12-24T04:04:01;20.08;;;13.50;;
10945;SDS011;5525;42.648;23.368;2022-12-24T04:06:28;22.65;;;13.40;;
10945;SDS011;5525;42.648;23.368;2022-12-24T04:08:56;22.75;;;13.07;;
10945;SDS011;5525;42.648;23.368;2022-12-24T04:11:25;25.40;;;15.32;;
10945;SDS011;5525;42.648;23.368;2022-12-24T04:13:53;22.95;;;13.18;;
10945;SDS011;5525;42.648;23.368;2022-12-24T04:16:19;20.63;;;12.70;;
10945;SDS011;5525;42.648;23.368;2022-12-24T04:18:46;23.02;;;13.07;;
10945;SDS011;5525;42.648;23.368;2022-12-24T04:21:13;20.83;;;12.15;;
10945;SDS011;5525;42.648;23.368;2022-12-24T04:23:40;22.42;;;12.30;;
10945;SDS011;5525;42.648;23.368;2022-12-24T04:26:10;17.08;;;10.32;;
10945;SDS011;5525;42.648;23.368;2022-12-24T04:28:38;19.58;;;12.32;;
10945;SDS011;5525;42.648;23.368;2022-12-24T04:31:06;19.88;;;12.60;;
10945;SDS011;5525;42.648;23.368;2022-12-24T04:33:35;16.05;;;11.00;;
10945;SDS011;5525;42.648;23.368;2022-12-24T04:36:03;20.85;;;11.10;;
10945;SDS011;5525;42.648;23.368;2022-12-24T04:38:31;18.10;;;11.20;;
10945;SDS011;5525;42.648;23.368;2022-12-24T04:40:58;19.23;;;11.77;;
10945;SDS011;5525;42.648;23.368;2022-12-24T04:43:27;16.20;;;10.45;;
10945;SDS011;5525;42.648;23.368;2022-12-24T04:45:55;15.80;;;9.63;;
10945;SDS011;5525;42.648;23.368;2022-12-24T04:48:22;19.05;;;10.95;;
10945;SDS011;5525;42.648;23.368;2022-12-24T04:50:49;20.70;;;12.52;;
10945;SDS011;5525;42.648;23.368;2022-12-24T04:53:16;19.33;;;11.73;;
10945;SDS011;5525;42.648;23.368;2022-12-24T04:55:43;20.33;;;12.48;;
10945;SDS011;5525;42.648;23.368;2022-12-24T04:58:11;20.38;;;12.55;;
10945;SDS011;5525;42.648;23.368;2022-12-24T05:00:39;19.00;;;11.75;;
10945;SDS011;5525;42.648;23.368;2022-12-24T05:03:07;22.67;;;13.52;;
10945;SDS011;5525;42.648;23.368;2022-12-24T05:05:34;22.48;;;12.98;;
10945;SDS011;5525;42.648;23.368;2022-12-24T05:08:01;20.23;;;13.00;;
10945;SDS011;5525;42.648;23.368;2022-12-24T05:10:28;21.63;;;13.23;;
10945;SDS011;5525;42.648;23.368;2022-12-24T05:12:55;23.75;;;14.68;;
10945;SDS011;5525;42.648;23.368;2022-12-24T05:15:22;22.05;;;13.30;;
10945;SDS011;5525;42.648;23.368;2022-12-24T05:17:50;20.58;;;12.23;;
10945;SDS011;5525;42.648;23.368;2022-12-24T05:20:17;19.23;;;13.02;;
10945;SDS011;5525;42.648;23.368;2022-12-24T05:22:44;21.23;;;13.68;;
10945;SDS011;5525;42.648;23.368;2022-12-24T05:25:30;20.98;;;14.35;;
10945;SDS011;5525;42.648;23.368;2022-12-24T05:28:19;22.33;;;15.25;;
10945;SDS011;5525;42.648;23.368;2022-12-24T05:30:46;22.13;;;12.63;;
10945;SDS011;5525;42.648;23.368;2022-12-24T05:33:14;20.48;;;13.25;;
10945;SDS011;5525;42.648;23.368;2022-12-24T05:35:41;21.30;;;12.93;;
10945;SDS011;5525;42.648;23.368;2022-12-24T05:38:08;23.48;;;15.02;;
10945;SDS011;5525;42.648;23.368;2022-12-24T05:40:34;26.25;;;17.70;;
10945;SDS011;5525;42.648;23.368;2022-12-24T05:43:01;27.27;;;18.55;;
10945;SDS011;5525;42.648;23.368;2022-12-24T05:45:28;22.38;;;14.05;;
10945;SDS011;5525;42.648;23.368;2022-12-24T05:47:55;26.55;;;17.13;;
10945;SDS011;5525;42.648;23.368;2022-12-24T05:50:23;22.10;;;15.10;;
10945;SDS011;5525;42.648;23.368;2022-12-24T05:52:51;22.33;;;14.75;;
10945;SDS011;5525;42.648;23.368;2022-12-24T05:55:17;17.08;;;12.68;;
10945;SDS011;5525;42.648;23.368;2022-12-24T05:57:44;21.83;;;13.95;;
10945;SDS011;5525;42.648;23.368;2022-12-24T06:00:11;22.35;;;13.98;;
10945;SDS011;5525;42.648;23.368;2022-12-24T06:02:39;23.20;;;14.63;;
10945;SDS011;5525;42.648;23.368;2022-12-24T06:05:06;23.55;;;14.00;;
10945;SDS011;5525;42.648;23.368;2022-12-24T06:07:34;18.88;;;13.18;;
10945;SDS011;5525;42.648;23.368;2022-12-24T06:10:01;20.08;;;12.40;;
10945;SDS011;5525;42.648;23.368;2022-12-24T06:12:28;18.83;;;12.32;;
10945;SDS011;5525;42.648;23.368;2022-12-24T06:14:55;20.58;;;13.45;;
10945;SDS011;5525;42.648;23.368;2022-12-24T06:17:22;22.88;;;14.77;;
10945;SDS011;5525;42.648;23.368;2022-12-24T06:19:49;21.73;;;13.13;;
10945;SDS011;5525;42.648;23.368;2022-12-24T06:22:15;19.67;;;12.93;;
10945;SDS011;5525;42.648;23.368;2022-12-24T06:24:43;20.65;;;13.43;;
10945;SDS011;5525;42.648;23.368;2022-12-24T06:27:10;21.45;;;13.65;;
10945;SDS011;5525;42.648;23.368;2022-12-24T06:29:37;20.90;;;13.73;;
10945;SDS011;5525;42.648;23.368;2022-12-24T06:32:04;20.20;;;12.32;;
10945;SDS011;5525;42.648;23.368;2022-12-24T06:34:31;18.58;;;11.90;;
10945;SDS011;5525;42.648;23.368;2022-12-24T06:36:58;24.45;;;15.70;;
10945;SDS011;5525;42.648;23.368;2022-12-24T06:39:24;22.58;;;14.52;;
10945;SDS011;5525;42.648;23.368;2022-12-24T06:41:53;20.80;;;14.00;;
10945;SDS011;5525;42.648;23.368;2022-12-24T06:44:21;45.35;;;28.33;;
10945;SDS011;5525;42.648;23.368;2022-12-24T06:46:48;29.45;;;18.80;;
10945;SDS011;5525;42.648;23.368;2022-12-24T06:49:15;19.50;;;11.90;;
10945;SDS011;5525;42.648;23.368;2022-12-24T06:51:42;25.35;;;16.13;;
10945;SDS011;5525;42.648;23.368;2022-12-24T06:54:09;23.67;;;15.90;;
10945;SDS011;5525;42.648;23.368;2022-12-24T06:56:36;26.15;;;15.38;;
10945;SDS011;5525;42.648;23.368;2022-12-24T06:59:04;27.55;;;15.57;;
10945;SDS011;5525;42.648;23.368;2022-12-24T07:01:31;27.75;;;15.80;;
10945;SDS011;5525;42.648;23.368;2022-12-24T07:03:57;21.17;;;14.98;;
10945;SDS011;5525;42.648;23.368;2022-12-24T07:06:25;20.10;;;13.95;;
10945;SDS011;5525;42.648;23.368;2022-12-24T07:08:53;23.45;;;14.82;;
10945;SDS011;5525;42.648;23.368;2022-12-24T07:11:21;13.93;;;9.50;;
10945;SDS011;5525;42.648;23.368;2022-12-24T07:13:48;14.40;;;9.07;;
10945;SDS011;5525;42.648;23.368;2022-12-24T07:16:17;12.43;;;8.93;;
10945;SDS011;5525;42.648;23.368;2022-12-24T07:18:43;17.88;;;10.73;;
10945;SDS011;5525;42.648;23.368;2022-12-24T07:21:10;14.68;;;10.45;;
10945;SDS011;5525;42.648;23.368;2022-12-24T07:23:37;21.20;;;12.35;;
10945;SDS011;5525;42.648;23.368;2022-12-24T07:26:04;29.30;;;22.98;;
10945;SDS011;5525;42.648;23.368;2022-12-24T07:28:32;26.90;;;19.30;;
10945;SDS011;5525;42.648;23.368;2022-12-24T07:30:59;32.80;;;25.08;;
10945;SDS011;5525;42.648;23.368;2022-12-24T07:33:27;35.42;;;27.00;;
10945;SDS011;5525;42.648;23.368;2022-12-24T07:35:57;17.70;;;11.95;;
10945;SDS011;5525;42.648;23.368;2022-12-24T07:38:26;18.95;;;13.02;;
10945;SDS011;5525;42.648;23.368;2022-12-24T07:40:53;15.65;;;10.52;;
10945;SDS011;5525;42.648;23.368;2022-12-24T07:43:20;17.52;;;11.52;;
10945;SDS011;5525;42.648;23.368;2022-12-24T07:45:47;16.20;;;11.00;;
10945;SDS011;5525;42.648;23.368;2022-12-24T07:48:14;17.92;;;12.60;;
10945;SDS011;5525;42.648;23.368;2022-12-24T07:50:43;26.10;;;17.70;;
10945;SDS011;5525;42.648;23.368;2022-12-24T07:53:09;15.95;;;11.77;;
10945;SDS011;5525;42.648;23.368;2022-12-24T07:55:36;14.07;;;9.95;;
10945;SDS011;5525;42.648;23.368;2022-12-24T07:58:03;29.23;;;19.33;;
10945;SDS011;5525;42.648;23.368;2022-12-24T08:00:30;26.40;;;18.75;;
10945;SDS011;5525;42.648;23.368;2022-12-24T08:02:57;40.60;;;28.15;;
10945;SDS011;5525;42.648;23.368;2022-12-24T08:05:24;39.33;;;26.00;;
10945;SDS011;5525;42.648;23.368;2022-12-24T08:07:53;32.65;;;22.50;;
10945;SDS011;5525;42.648;23.368;2022-12-24T08:10:20;29.48;;;19.77;;
10945;SDS011;5525;42.648;23.368;2022-12-24T08:12:47;27.58;;;19.58;;
10945;SDS011;5525;42.648;23.368;2022-12-24T08:15:14;32.60;;;21.25;;
10945;SDS011;5525;42.648;23.368;2022-12-24T08:17:41;38.35;;;21.65;;
10945;SDS011;5525;42.648;23.368;2022-12-24T08:20:08;30.15;;;20.38;;
10945;SDS011;5525;42.648;23.368;2022-12-24T08:22:36;27.42;;;19.35;;
10945;SDS011;5525;42.648;23.368;2022-12-24T08:25:04;47.05;;;26.45;;
10945;SDS011;5525;42.648;23.368;2022-12-24T08:27:32;33.33;;;21.88;;
10945;SDS011;5525;42.648;23.368;2022-12-24T08:29:59;27.70;;;20.67;;
10945;SDS011;5525;42.648;23.368;2022-12-24T08:32:26;24.00;;;17.15;;
10945;SDS011;5525;42.648;23.368;2022-12-24T08:34:53;27.98;;;18.23;;
10945;SDS011;5525;42.648;23.368;2022-12-24T08:37:19;27.55;;;18.58;;
10945;SDS011;5525;42.648;23.368;2022-12-24T08:39:46;33.45;;;19.17;;
10945;SDS011;5525;42.648;23.368;2022-12-24T08:42:14;28.13;;;17.98;;
10945;SDS011;5525;42.648;23.368;2022-12-24T08:44:41;28.38;;;17.45;;
10945;SDS011;5525;42.648;23.368;2022-12-24T08:47:08;29.80;;;19.10;;
10945;SDS011;5525;42.648;23.368;2022-12-24T08:49:35;31.13;;;18.85;;
10945;SDS011;5525;42.648;23.368;2022-12-24T08:52:02;20.80;;;13.43;;
10945;SDS011;5525;42.648;23.368;2022-12-24T08:54:29;20.92;;;13.77;;
10945;SDS011;5525;42.648;23.368;2022-12-24T08:56:56;21.05;;;13.63;;
10945;SDS011;5525;42.648;23.368;2022-12-24T08:59:24;22.52;;;16.92;;
10945;SDS011;5525;42.648;23.368;2022-12-24T09:01:51;27.45;;;15.98;;
10945;SDS011;5525;42.648;23.368;2022-12-24T09:04:18;40.28;;;26.38;;
10945;SDS011;5525;42.648;23.368;2022-12-24T09:06:45;40.05;;;25.77;;
10945;SDS011;5525;42.648;23.368;2022-12-24T09:09:12;39.15;;;26.75;;
10945;SDS011;5525;42.648;23.368;2022-12-24T09:11:39;44.00;;;26.25;;
10945;SDS011;5525;42.648;23.368;2022-12-24T09:14:06;40.05;;;26.00;;
10945;SDS011;5525;42.648;23.368;2022-12-24T09:16:34;36.58;;;24.88;;
10945;SDS011;5525;42.648;23.368;2022-12-24T09:19:01;37.60;;;26.38;;
10945;SDS011;5525;42.648;23.368;2022-12-24T09:21:28;35.10;;;24.85;;
10945;SDS011;5525;42.648;23.368;2022-12-24T09:23:55;37.30;;;25.48;;
10945;SDS011;5525;42.648;23.368;2022-12-24T09:26:26;34.35;;;23.35;;
10945;SDS011;5525;42.648;23.368;2022-12-24T09:28:55;33.08;;;22.67;;
10945;SDS011;5525;42.648;23.368;2022-12-24T09:31:23;34.28;;;22.50;;
10945;SDS011;5525;42.648;23.368;2022-12-24T09:33:51;28.80;;;20.27;;
10945;SDS011;5525;42.648;23.368;2022-12-24T09:36:18;29.80;;;19.35;;
10945;SDS011;5525;42.648;23.368;2022-12-24T09:38:46;26.30;;;18.08;;
10945;SDS011;5525;42.648;23.368;2022-12-24T09:41:13;26.98;;;17.40;;
10945;SDS011;5525;42.648;23.368;2022-12-24T09:43:43;25.27;;;18.77;;
10945;SDS011;5525;42.648;23.368;2022-12-24T09:46:19;30.83;;;21.33;;
10945;SDS011;5525;42.648;23.368;2022-12-24T09:48:52;32.65;;;24.17;;
10945;SDS011;5525;42.648;23.368;2022-12-24T09:51:24;38.53;;;23.60;;
10945;SDS011;5525;42.648;23.368;2022-12-24T09:53:55;33.58;;;24.00;;
10945;SDS011;5525;42.648;23.368;2022-12-24T09:56:29;32.63;;;24.20;;
10945;SDS011;5525;42.648;23.368;2022-12-24T09:58:59;34.60;;;24.23;;
10945;SDS011;5525;42.648;23.368;2022-12-24T10:01:28;34.55;;;24.95;;
10945;SDS011;5525;42.648;23.368;2022-12-24T10:03:57;41.25;;;26.35;;
10945;SDS011;5525;42.648;23.368;2022-12-24T10:06:31;38.40;;;26.17;;
10945;SDS011;5525;42.648;23.368;2022-12-24T10:09:09;40.70;;;25.88;;
10945;SDS011;5525;42.648;23.368;2022-12-24T10:11:42;41.95;;;26.85;;
10945;SDS011;5525;42.648;23.368;2022-12-24T10:14:19;45.03;;;28.35;;
10945;SDS011;5525;42.648;23.368;2022-12-24T10:16:57;43.28;;;28.95;;
10945;SDS011;5525;42.648;23.368;2022-12-24T10:19:49;41.72;;;27.70;;
10945;SDS011;5525;42.648;23.368;2022-12-24T10:22:23;42.70;;;27.73;;
10945;SDS011;5525;42.648;23.368;2022-12-24T10:24:56;46.90;;;29.95;;
10945;SDS011;5525;42.648;23.368;2022-12-24T10:27:29;49.42;;;30.30;;
10945;SDS011;5525;42.648;23.368;2022-12-24T10:30:01;42.33;;;27.65;;
10945;SDS011;5525;42.648;23.368;2022-12-24T10:32:37;43.08;;;27.25;;
10945;SDS011;5525;42.648;23.368;2022-12-24T10:35:07;41.70;;;27.27;;
10945;SDS011;5525;42.648;23.368;2022-12-24T10:37:45;41.90;;;27.35;;
10945;SDS011;5525;42.648;23.368;2022-12-24T10:40:15;43.60;;;27.17;;
10945;SDS011;5525;42.648;23.368;2022-12-24T10:42:49;45.58;;;29.08;;
10945;SDS011;5525;42.648;23.368;2022-12-24T10:45:17;42.00;;;28.10;;
10945;SDS011;5525;42.648;23.368;2022-12-24T10:47:48;40.75;;;27.73;;
10945;SDS011;5525;42.648;23.368;2022-12-24T10:50:23;41.60;;;27.40;;
10945;SDS011;5525;42.648;23.368;2022-12-24T10:52:57;42.03;;;28.48;;
10945;SDS011;5525;42.648;23.368;2022-12-24T10:55:39;41.53;;;27.77;;
10945;SDS011;5525;42.648;23.368;2022-12-24T10:58:12;41.88;;;27.95;;
10945;SDS011;5525;42.648;23.368;2022-12-24T11:00:41;40.88;;;27.70;;
10945;SDS011;5525;42.648;23.368;2022-12-24T11:03:21;42.20;;;28.55;;
10945;SDS011;5525;42.648;23.368;2022-12-24T11:06:05;43.47;;;27.73;;
10945;SDS011;5525;42.648;23.368;2022-12-24T11:08:35;39.45;;;27.92;;
10945;SDS011;5525;42.648;23.368;2022-12-24T11:11:05;42.42;;;27.95;;
10945;SDS011;5525;42.648;23.368;2022-12-24T11:13:35;40.20;;;28.52;;
10945;SDS011;5525;42.648;23.368;2022-12-24T11:16:04;42.40;;;28.95;;
10945;SDS011;5525;42.648;23.368;2022-12-24T11:18:33;42.72;;;29.02;;
10945;SDS011;5525;42.648;23.368;2022-12-24T11:21:05;44.33;;;28.80;;
10945;SDS011;5525;42.648;23.368;2022-12-24T11:23:33;43.63;;;29.25;;
10945;SDS011;5525;42.648;23.368;2022-12-24T11:26:00;45.13;;;29.65;;
10945;SDS011;5525;42.648;23.368;2022-12-24T11:28:28;40.53;;;27.88;;
10945;SDS011;5525;42.648;23.368;2022-12-24T11:30:59;47.47;;;30.50;;
10945;SDS011;5525;42.648;23.368;2022-12-24T11:33:29;60.92;;;31.70;;
10945;SDS011;5525;42.648;23.368;2022-12-24T11:35:59;46.05;;;29.58;;
10945;SDS011;5525;42.648;23.368;2022-12-24T11:38:30;50.67;;;29.90;;
10945;SDS011;5525;42.648;23.368;2022-12-24T11:41:03;49.25;;;31.05;;
10945;SDS011;5525;42.648;23.368;2022-12-24T11:43:36;38.53;;;26.33;;
10945;SDS011;5525;42.648;23.368;2022-12-24T11:46:16;41.78;;;28.42;;
10945;SDS011;5525;42.648;23.368;2022-12-24T11:54:58;46.33;;;28.75;;
10945;SDS011;5525;42.648;23.368;2022-12-24T11:57:40;50.03;;;29.02;;
10945;SDS011;5525;42.648;23.368;2022-12-24T12:00:13;48.03;;;29.85;;
10945;SDS011;5525;42.648;23.368;2022-12-24T12:02:41;38.40;;;26.42;;
10945;SDS011;5525;42.648;23.368;2022-12-24T12:05:12;39.70;;;26.95;;
10945;SDS011;5525;42.648;23.368;2022-12-24T12:07:42;41.55;;;28.10;;
10945;SDS011;5525;42.648;23.368;2022-12-24T12:10:17;38.60;;;25.95;;
10945;SDS011;5525;42.648;23.368;2022-12-24T12:12:49;42.35;;;25.48;;
10945;SDS011;5525;42.648;23.368;2022-12-24T12:15:25;32.88;;;22.67;;
10945;SDS011;5525;42.648;23.368;2022-12-24T12:17:55;31.77;;;21.75;;
10945;SDS011;5525;42.648;23.368;2022-12-24T12:20:32;28.98;;;21.95;;
10945;SDS011;5525;42.648;23.368;2022-12-24T12:23:02;32.47;;;23.25;;
10945;SDS011;5525;42.648;23.368;2022-12-24T12:25:40;35.75;;;23.95;;
10945;SDS011;5525;42.648;23.368;2022-12-24T12:28:13;33.92;;;22.95;;
10945;SDS011;5525;42.648;23.368;2022-12-24T12:30:46;32.33;;;22.80;;
10945;SDS011;5525;42.648;23.368;2022-12-24T12:33:24;33.22;;;23.23;;
10945;SDS011;5525;42.648;23.368;2022-12-24T12:35:57;37.22;;;25.20;;
10945;SDS011;5525;42.648;23.368;2022-12-24T12:38:26;36.83;;;25.13;;
10945;SDS011;5525;42.648;23.368;2022-12-24T12:41:09;36.65;;;25.10;;
10945;SDS011;5525;42.648;23.368;2022-12-24T12:46:48;38.42;;;26.40;;
10945;SDS011;5525;42.648;23.368;2022-12-24T12:49:26;38.40;;;26.77;;
10945;SDS011;5525;42.648;23.368;2022-12-24T12:52:01;39.50;;;26.55;;
10945;SDS011;5525;42.648;23.368;2022-12-24T12:57:27;40.03;;;26.75;;
10945;SDS011;5525;42.648;23.368;2022-12-24T13:00:01;41.90;;;27.52;;
10945;SDS011;5525;42.648;23.368;2022-12-24T13:02:44;38.40;;;26.95;;
10945;SDS011;5525;42.648;23.368;2022-12-24T13:05:32;40.72;;;26.40;;
10945;SDS011;5525;42.648;23.368;2022-12-24T13:08:24;42.53;;;26.88;;
10945;SDS011;5525;42.648;23.368;2022-12-24T13:11:10;36.25;;;25.30;;
10945;SDS011;5525;42.648;23.368;2022-12-24T13:14:00;34.38;;;24.75;;
10945;SDS011;5525;42.648;23.368;2022-12-24T13:16:42;35.83;;;24.88;;
10945;SDS011;5525;42.648;23.368;2022-12-24T13:19:35;37.22;;;26.23;;
10945;SDS011;5525;42.648;23.368;2022-12-24T13:22:13;37.83;;;25.25;;
10945;SDS011;5525;42.648;23.368;2022-12-24T13:24:46;39.38;;;26.55;;
10945;SDS011;5525;42.648;23.368;2022-12-24T13:27:15;38.13;;;26.35;;
10945;SDS011;5525;42.648;23.368;2022-12-24T13:29:53;37.90;;;26.17;;
10945;SDS011;5525;42.648;23.368;2022-12-24T13:44:16;42.85;;;27.08;;
10945;SDS011;5525;42.648;23.368;2022-12-24T13:46:47;43.67;;;26.80;;
10945;SDS011;5525;42.648;23.368;2022-12-24T13:49:17;40.42;;;27.00;;
10945;SDS011;5525;42.648;23.368;2022-12-24T13:51:46;40.60;;;27.30;;
10945;SDS011;5525;42.648;23.368;2022-12-24T13:54:13;41.92;;;28.55;;
10945;SDS011;5525;42.648;23.368;2022-12-24T13:56:49;43.55;;;28.25;;
10945;SDS011;5525;42.648;23.368;2022-12-24T13:59:22;45.47;;;28.98;;
10945;SDS011;5525;42.648;23.368;2022-12-24T14:01:57;43.20;;;28.65;;
10945;SDS011;5525;42.648;23.368;2022-12-24T14:04:25;45.15;;;29.42;;
10945;SDS011;5525;42.648;23.368;2022-12-24T14:06:54;42.42;;;29.85;;
10945;SDS011;5525;42.648;23.368;2022-12-24T14:09:26;43.80;;;29.83;;
10945;SDS011;5525;42.648;23.368;2022-12-24T14:12:14;43.97;;;30.92;;
10945;SDS011;5525;42.648;23.368;2022-12-24T14:14:55;46.08;;;30.52;;
10945;SDS011;5525;42.648;23.368;2022-12-24T14:17:24;46.65;;;31.88;;
10945;SDS011;5525;42.648;23.368;2022-12-24T14:19:54;48.25;;;31.50;;
10945;SDS011;5525;42.648;23.368;2022-12-24T14:22:26;48.92;;;32.20;;
10945;SDS011;5525;42.648;23.368;2022-12-24T14:24:56;48.30;;;32.20;;
10945;SDS011;5525;42.648;23.368;2022-12-24T14:27:27;54.20;;;33.10;;
10945;SDS011;5525;42.648;23.368;2022-12-24T14:29:59;49.33;;;32.15;;
10945;SDS011;5525;42.648;23.368;2022-12-24T14:32:34;46.67;;;32.70;;
10945;SDS011;5525;42.648;23.368;2022-12-24T14:35:06;51.85;;;32.85;;
10945;SDS011;5525;42.648;23.368;2022-12-24T14:37:35;47.72;;;32.67;;
10945;SDS011;5525;42.648;23.368;2022-12-24T14:40:02;47.42;;;32.65;;
10945;SDS011;5525;42.648;23.368;2022-12-24T14:42:33;48.92;;;33.25;;
10945;SDS011;5525;42.648;23.368;2022-12-24T14:45:11;45.15;;;31.40;;
10945;SDS011;5525;42.648;23.368;2022-12-24T14:47:47;48.55;;;33.88;;
10945;SDS011;5525;42.648;23.368;2022-12-24T14:50:31;55.38;;;36.75;;
10945;SDS011;5525;42.648;23.368;2022-12-24T14:53:06;58.78;;;37.25;;
10945;SDS011;5525;42.648;23.368;2022-12-24T14:55:47;54.75;;;38.90;;
10945;SDS011;5525;42.648;23.368;2022-12-24T14:58:20;53.58;;;35.85;;
10945;SDS011;5525;42.648;23.368;2022-12-24T15:00:50;52.35;;;35.08;;
10945;SDS011;5525;42.648;23.368;2022-12-24T15:03:21;51.45;;;33.97;;
10945;SDS011;5525;42.648;23.368;2022-12-24T15:05:50;52.85;;;32.95;;
10945;SDS011;5525;42.648;23.368;2022-12-24T15:08:21;50.90;;;34.67;;